Time;durP1;ratioP1;P1;durP2;ratioP2;P2;SDS_P1;SDS_P2;PMS_P1;PMS_P2;Temp;Humidity;BMP_temperature;BMP_pressure;BME280_temperature;BME280_humidity;BME280_pressure;Samples;Min_cycle;Max_cycle;Signal;HPM_P1;HPM_P2
2023/09/11 00:01:49;;;;;;;24.55;22.17;;;16.60;99.90;;;;;;4917987;29;20199;-69
2023/09/11 00:04:16;;;;;;;26.08;23.58;;;16.60;99.90;;;;;;4917968;29;20262;-69
2023/09/11 00:06:43;;;;;;;25.10;22.60;;;16.50;99.90;;;;;;4917775;29;20262;-69
2023/09/11 00:09:09;;;;;;;24.05;21.67;;;16.40;99.90;;;;;;4918021;29;20238;-69
2023/09/11 00:11:37;;;;;;;22.75;20.65;;;16.30;99.90;;;;;;4917903;29;20209;-69
2023/09/11 00:14:04;;;;;;;24.77;22.48;;;16.30;99.90;;;;;;4917763;29;20281;-69
2023/09/11 00:16:30;;;;;;;23.80;21.45;;;16.40;99.90;;;;;;4917298;29;20568;-69
2023/09/11 00:18:57;;;;;;;24.40;22.10;;;16.40;99.90;;;;;;4917679;29;20235;-69
2023/09/11 00:21:24;;;;;;;23.83;21.48;;;16.30;99.90;;;;;;4917371;29;20606;-69
2023/09/11 00:23:50;;;;;;;23.73;21.35;;;16.40;99.90;;;;;;4917670;29;20208;-69
2023/09/11 00:26:17;;;;;;;23.50;20.83;;;16.50;99.90;;;;;;4917865;29;20258;-69
2023/09/11 00:28:45;;;;;;;21.80;19.80;;;16.50;99.90;;;;;;4917566;29;20615;-69
2023/09/11 00:31:11;;;;;;;21.73;19.83;;;16.60;99.90;;;;;;4917494;29;20206;-69
2023/09/11 00:33:38;;;;;;;21.58;19.58;;;16.70;99.90;;;;;;4917341;29;20206;-70
2023/09/11 00:36:05;;;;;;;22.98;20.80;;;16.70;99.90;;;;;;4917247;29;20658;-69
2023/09/11 00:38:32;;;;;;;21.52;19.58;;;16.60;99.90;;;;;;4917329;29;20282;-69
2023/09/11 00:40:58;;;;;;;23.42;21.25;;;16.50;99.90;;;;;;4917002;29;20722;-69
2023/09/11 00:43:25;;;;;;;22.90;20.02;;;16.40;99.90;;;;;;4916322;29;20198;-69
2023/09/11 00:45:55;;;;;;;23.77;21.48;;;16.40;99.90;;;;;;4917217;29;20203;-69
2023/09/11 00:48:21;;;;;;;22.38;20.38;;;16.30;99.90;;;;;;4916997;29;20658;-69
2023/09/11 00:50:48;;;;;;;22.10;20.05;;;16.10;99.90;;;;;;4916981;29;20733;-69
2023/09/11 00:53:15;;;;;;;23.52;21.20;;;16.00;99.90;;;;;;4916721;29;20587;-69
2023/09/11 00:55:43;;;;;;;22.45;20.25;;;15.90;99.90;;;;;;4917170;29;20270;-69
2023/09/11 00:58:09;;;;;;;23.20;21.05;;;15.90;99.90;;;;;;4916987;29;20227;-69
2023/09/11 01:00:36;;;;;;;23.08;20.92;;;15.80;99.90;;;;;;4916992;29;20360;-69
2023/09/11 01:03:05;;;;;;;24.50;22.02;;;15.80;99.90;;;;;;4916801;29;20234;-69
2023/09/11 01:05:32;;;;;;;24.35;21.98;;;15.80;99.90;;;;;;4917016;29;20199;-69
2023/09/11 01:07:59;;;;;;;24.25;21.75;;;15.70;99.90;;;;;;4916987;29;20751;-69
2023/09/11 01:10:25;;;;;;;25.33;22.75;;;15.70;99.90;;;;;;4916827;29;20565;-69
2023/09/11 01:12:52;;;;;;;26.33;23.65;;;15.70;99.90;;;;;;4916775;29;20203;-69
2023/09/11 01:15:19;;;;;;;25.60;23.30;;;15.70;99.90;;;;;;4916691;29;20207;-69
2023/09/11 01:17:51;;;;;;;22.73;20.65;;;15.60;99.90;;;;;;4916507;29;20226;-69
2023/09/11 01:20:46;;;;;;;24.40;22.25;;;15.60;99.90;;;;;;4916593;29;20198;-69
2023/09/11 01:23:35;;;;;;;24.33;22.08;;;15.80;99.90;;;;;;4913573;29;20662;-69
2023/09/11 01:26:25;;;;;;;22.67;20.77;;;15.80;99.90;;;;;;4916535;29;20207;-69
2023/09/11 01:29:07;;;;;;;23.75;21.27;;;15.80;99.90;;;;;;4916673;29;20199;-69
2023/09/11 01:31:36;;;;;;;23.70;21.38;;;15.70;99.90;;;;;;4916616;29;20213;-70
2023/09/11 01:34:03;;;;;;;22.77;20.37;;;15.60;99.90;;;;;;4916518;29;20202;-69
2023/09/11 01:36:30;;;;;;;21.33;19.43;;;15.60;99.90;;;;;;4916703;29;20210;-69
2023/09/11 01:38:57;;;;;;;24.20;21.67;;;15.50;99.90;;;;;;4916538;29;20234;-69
2023/09/11 01:41:31;;;;;;;23.53;21.33;;;15.40;99.90;;;;;;4916610;29;20206;-69
2023/09/11 01:44:03;;;;;;;22.40;20.40;;;15.40;99.90;;;;;;4916525;29;20273;-69
2023/09/11 01:46:31;;;;;;;22.63;20.52;;;15.40;99.90;;;;;;4916461;29;20210;-69
2023/09/11 01:49:00;;;;;;;24.30;21.95;;;15.40;99.90;;;;;;4916303;29;20254;-69
2023/09/11 01:51:27;;;;;;;23.13;21.02;;;15.50;99.90;;;;;;4916492;29;20202;-69
2023/09/11 01:53:54;;;;;;;23.58;21.23;;;15.50;99.90;;;;;;4916295;29;20393;-69
2023/09/11 01:56:21;;;;;;;22.77;20.58;;;15.40;99.90;;;;;;4920156;29;20285;-68
2023/09/11 01:58:47;;;;;;;23.83;21.63;;;15.40;99.90;;;;;;4920154;29;20278;-69
2023/09/11 02:01:14;;;;;;;23.63;21.33;;;15.40;99.90;;;;;;4920046;29;20746;-69
2023/09/11 02:03:42;;;;;;;24.65;22.15;;;15.40;99.90;;;;;;4920383;29;20206;-69
2023/09/11 02:06:08;;;;;;;23.50;21.20;;;15.40;99.90;;;;;;4920165;29;20253;-69
2023/09/11 02:08:35;;;;;;;23.20;20.90;;;15.30;99.90;;;;;;4920148;29;20261;-69
2023/09/11 02:11:02;;;;;;;23.03;20.70;;;15.40;99.90;;;;;;4920051;29;20253;-69
2023/09/11 02:13:28;;;;;;;22.33;20.33;;;15.40;99.90;;;;;;4919861;29;20543;-69
2023/09/11 02:15:55;;;;;;;22.75;20.65;;;15.40;99.90;;;;;;4919847;29;20198;-69
2023/09/11 02:18:22;;;;;;;22.00;19.90;;;15.30;99.90;;;;;;4919962;29;20279;-69
2023/09/11 02:20:49;;;;;;;22.60;20.40;;;15.40;99.90;;;;;;4919904;29;20206;-69
2023/09/11 02:23:16;;;;;;;21.83;19.63;;;15.30;99.90;;;;;;4919894;29;20225;-69
2023/09/11 02:25:43;;;;;;;20.17;18.27;;;15.20;99.90;;;;;;4919637;29;20606;-69
2023/09/11 02:28:09;;;;;;;21.20;19.27;;;15.20;99.90;;;;;;4919675;29;20270;-69
2023/09/11 02:30:36;;;;;;;20.20;18.30;;;15.30;99.90;;;;;;4919508;29;20210;-69
2023/09/11 02:33:03;;;;;;;20.10;18.20;;;15.20;99.90;;;;;;4919715;29;20202;-69
2023/09/11 02:35:31;;;;;;;20.88;18.88;;;15.20;99.90;;;;;;4919509;29;20650;-69
2023/09/11 02:37:59;;;;;;;20.43;18.53;;;15.30;99.90;;;;;;4919446;29;20309;-69
2023/09/11 02:40:25;;;;;;;21.00;19.08;;;15.40;99.90;;;;;;4919508;29;20206;-69
2023/09/11 02:42:52;;;;;;;21.53;19.53;;;15.50;99.90;;;;;;4919340;29;20206;-69
2023/09/11 02:45:19;;;;;;;21.10;19.15;;;15.50;99.90;;;;;;4919630;29;20257;-69
2023/09/11 02:47:45;;;;;;;21.03;18.93;;;15.50;99.90;;;;;;4919507;29;20602;-69
2023/09/11 02:50:12;;;;;;;21.13;19.27;;;15.50;99.90;;;;;;4919328;29;20254;-69
2023/09/11 02:52:38;;;;;;;19.33;17.50;;;15.40;99.90;;;;;;4919296;29;20250;-69
2023/09/11 02:55:11;;;;;;;21.93;19.73;;;15.30;99.90;;;;;;4919044;29;20262;-69
2023/09/11 02:57:37;;;;;;;22.20;20.17;;;15.30;99.90;;;;;;4919074;29;20270;-69
2023/09/11 03:00:06;;;;;;;20.02;18.23;;;15.40;99.90;;;;;;4919225;29;20230;-69
2023/09/11 03:02:32;;;;;;;20.52;18.48;;;15.50;99.90;;;;;;4918999;29;20225;-69
2023/09/11 03:04:59;;;;;;;21.45;19.35;;;15.60;99.90;;;;;;4919021;29;20650;-69
2023/09/11 03:07:26;;;;;;;19.57;17.77;;;15.60;99.90;;;;;;4917928;29;20202;-69
2023/09/11 03:09:52;;;;;;;20.57;18.70;;;15.50;99.90;;;;;;4918890;29;20654;-69
2023/09/11 03:12:20;;;;;;;20.27;18.35;;;15.50;99.90;;;;;;4918783;29;20210;-69
2023/09/11 03:14:47;;;;;;;21.25;19.35;;;15.50;99.90;;;;;;4918935;29;20203;-69
2023/09/11 03:17:14;;;;;;;21.00;18.90;;;15.50;99.90;;;;;;4918692;29;20258;-69
2023/09/11 03:19:40;;;;;;;20.27;18.13;;;15.50;99.90;;;;;;4918687;29;20313;-69
2023/09/11 03:22:07;;;;;;;18.77;17.07;;;15.50;99.90;;;;;;4918696;29;20266;-69
2023/09/11 03:24:34;;;;;;;19.60;17.83;;;15.40;99.90;;;;;;4918425;29;20215;-69
2023/09/11 03:27:00;;;;;;;19.05;17.45;;;15.50;99.90;;;;;;4918502;29;20725;-69
2023/09/11 03:29:28;;;;;;;20.00;17.80;;;15.50;99.90;;;;;;4918775;29;20203;-69
2023/09/11 03:31:55;;;;;;;20.37;18.27;;;15.50;99.90;;;;;;4918681;29;20203;-69
2023/09/11 03:34:21;;;;;;;20.58;18.70;;;15.50;99.90;;;;;;4918490;29;20202;-68
2023/09/11 03:36:48;;;;;;;19.92;17.98;;;15.40;99.90;;;;;;4918457;29;20285;-69
2023/09/11 03:39:15;;;;;;;19.58;17.80;;;15.40;99.90;;;;;;4918283;29;20294;-69
2023/09/11 03:41:41;;;;;;;18.07;16.37;;;15.40;99.90;;;;;;4918480;29;20203;-69
2023/09/11 03:44:08;;;;;;;18.87;17.17;;;15.20;99.90;;;;;;4918807;29;20202;-69
2023/09/11 03:46:36;;;;;;;19.37;17.57;;;15.20;99.90;;;;;;4918942;29;20199;-69
2023/09/11 03:49:02;;;;;;;20.90;18.90;;;15.20;99.90;;;;;;4918350;29;20654;-69
2023/09/11 03:51:29;;;;;;;19.63;17.57;;;15.30;99.90;;;;;;4918179;29;20210;-69
2023/09/11 03:53:58;;;;;;;19.23;17.33;;;15.40;99.90;;;;;;4917862;29;20623;-69
2023/09/11 03:56:25;;;;;;;19.53;17.53;;;15.30;99.90;;;;;;4918178;29;20206;-69
2023/09/11 03:58:52;;;;;;;17.90;16.27;;;15.30;99.90;;;;;;4918069;29;20277;-68
2023/09/11 04:01:18;;;;;;;18.87;17.17;;;15.30;99.90;;;;;;4917998;29;20540;-69
2023/09/11 04:03:46;;;;;;;17.80;16.17;;;15.30;99.90;;;;;;4917933;29;20203;-69
2023/09/11 04:06:13;;;;;;;18.90;16.97;;;15.30;99.90;;;;;;4917512;29;20278;-69
2023/09/11 04:08:39;;;;;;;18.37;16.57;;;15.30;99.90;;;;;;4918092;29;20210;-69
2023/09/11 04:11:06;;;;;;;18.80;17.10;;;15.30;99.90;;;;;;4917865;29;20603;-69
2023/09/11 04:13:33;;;;;;;17.67;16.07;;;15.40;99.90;;;;;;4917761;29;20198;-68
2023/09/11 04:16:00;;;;;;;18.00;16.40;;;15.30;99.90;;;;;;4917666;29;20203;-69
2023/09/11 04:18:27;;;;;;;18.63;16.80;;;15.20;99.90;;;;;;4917181;29;20279;-69
2023/09/11 04:21:02;;;;;;;18.67;16.97;;;15.10;99.90;;;;;;4917477;29;20198;-68
2023/09/11 04:23:28;;;;;;;20.10;17.42;;;15.10;99.90;;;;;;4917814;29;20214;-69
2023/09/11 04:25:55;;;;;;;19.73;17.77;;;15.30;99.90;;;;;;4917568;29;20202;-68
2023/09/11 04:28:22;;;;;;;20.10;17.73;;;15.20;99.90;;;;;;4917605;29;20203;-69
2023/09/11 04:30:48;;;;;;;18.97;17.20;;;15.30;99.90;;;;;;4917441;29;20202;-69
2023/09/11 04:33:16;;;;;;;20.83;18.33;;;15.30;99.90;;;;;;4917443;29;20213;-69
2023/09/11 04:35:43;;;;;;;19.17;17.20;;;15.20;99.90;;;;;;4917386;29;20697;-70
2023/09/11 04:38:11;;;;;;;22.87;20.47;;;15.10;99.90;;;;;;4917412;29;20227;-69
2023/09/11 04:40:38;;;;;;;24.07;20.80;;;15.10;99.90;;;;;;4917203;29;20226;-70
2023/09/11 04:43:05;;;;;;;22.33;20.20;;;15.20;99.90;;;;;;4917300;29;20214;-70
2023/09/11 04:45:32;;;;;;;23.73;21.53;;;15.20;99.90;;;;;;4917088;29;20202;-68
2023/09/11 04:47:59;;;;;;;23.60;21.40;;;15.10;99.90;;;;;;4917054;29;20558;-68
2023/09/11 04:50:25;;;;;;;24.70;22.33;;;15.20;99.90;;;;;;4917207;29;20202;-68
2023/09/11 04:52:55;;;;;;;23.77;21.67;;;15.20;99.90;;;;;;4916790;29;20258;-68
2023/09/11 04:55:23;;;;;;;23.23;20.93;;;15.10;99.90;;;;;;4916877;29;20326;-69
2023/09/11 04:57:49;;;;;;;24.60;22.27;;;15.20;99.90;;;;;;4917020;29;20234;-68
2023/09/11 05:00:17;;;;;;;25.67;23.20;;;15.10;99.90;;;;;;4916831;29;20226;-69
2023/09/11 05:02:45;;;;;;;24.63;22.33;;;15.10;99.90;;;;;;4916942;29;20246;-69
2023/09/11 05:05:11;;;;;;;25.43;22.67;;;15.10;99.90;;;;;;4917075;29;20207;-68
2023/09/11 05:07:38;;;;;;;24.63;22.03;;;15.10;99.90;;;;;;4916642;29;20669;-68
2023/09/11 05:10:08;;;;;;;24.90;22.47;;;15.10;99.90;;;;;;4916744;29;20203;-68
2023/09/11 05:12:36;;;;;;;24.50;22.20;;;15.20;99.90;;;;;;4916758;29;20234;-70
2023/09/11 05:15:03;;;;;;;24.37;21.87;;;15.20;99.90;;;;;;4916563;29;20278;-68
2023/09/11 05:17:30;;;;;;;24.70;22.40;;;15.20;99.90;;;;;;4916987;29;20231;-70
2023/09/11 05:19:56;;;;;;;22.13;19.77;;;15.30;99.90;;;;;;4916567;29;20230;-70
2023/09/11 05:22:23;;;;;;;22.53;18.33;;;15.40;99.90;;;;;;4916713;29;20206;-70
2023/09/11 05:24:49;;;;;;;19.80;17.90;;;15.30;99.90;;;;;;4916572;29;20266;-70
2023/09/11 05:27:17;;;;;;;19.27;17.40;;;15.20;99.90;;;;;;4916288;29;20254;-70
2023/09/11 05:29:45;;;;;;;18.95;16.95;;;15.30;99.90;;;;;;4915863;29;20214;-70
2023/09/11 05:32:11;;;;;;;18.98;16.92;;;15.30;99.90;;;;;;4916307;29;20666;-70
2023/09/11 05:34:38;;;;;;;19.33;17.42;;;15.40;99.90;;;;;;4916505;29;20261;-70
2023/09/11 05:37:04;;;;;;;21.07;19.00;;;15.40;99.90;;;;;;4916431;29;20253;-70
2023/09/11 05:39:31;;;;;;;20.05;18.10;;;15.60;99.90;;;;;;4916317;29;20690;-70
2023/09/11 05:41:58;;;;;;;21.27;19.37;;;15.60;99.90;;;;;;4916134;29;20202;-70
2023/09/11 05:44:25;;;;;;;23.00;20.60;;;15.70;99.90;;;;;;4916458;29;20202;-70
2023/09/11 05:46:54;;;;;;;22.53;20.07;;;15.80;99.90;;;;;;4916329;29;20581;-70
2023/09/11 05:49:21;;;;;;;23.23;20.85;;;15.90;99.90;;;;;;4916263;29;20210;-70
2023/09/11 05:51:48;;;;;;;23.17;21.05;;;16.00;99.90;;;;;;4916238;29;20206;-71
2023/09/11 05:54:14;;;;;;;22.38;20.30;;;16.10;99.90;;;;;;4915954;29;20230;-70
2023/09/11 05:56:41;;;;;;;22.25;20.15;;;16.30;99.90;;;;;;4916150;29;20250;-70
2023/09/11 05:59:08;;;;;;;23.50;21.02;;;16.40;99.90;;;;;;4915983;29;20668;-70
2023/09/11 06:01:34;;;;;;;20.85;18.95;;;16.50;99.90;;;;;;4915883;29;20697;-69
2023/09/11 06:04:02;;;;;;;22.38;20.27;;;16.50;99.90;;;;;;4916264;29;20202;-70
2023/09/11 06:06:28;;;;;;;21.98;19.50;;;16.70;99.90;;;;;;4916159;29;20212;-70
2023/09/11 06:08:55;;;;;;;21.42;19.27;;;16.70;99.90;;;;;;4916317;29;20293;-70
2023/09/11 06:11:22;;;;;;;22.83;20.75;;;16.80;99.90;;;;;;4916025;29;20212;-70
2023/09/11 06:13:49;;;;;;;21.85;19.40;;;16.90;99.90;;;;;;4916092;29;20625;-70
2023/09/11 06:16:15;;;;;;;21.88;19.33;;;17.00;99.90;;;;;;4916277;29;20203;-70
2023/09/11 06:18:42;;;;;;;21.15;19.20;;;17.10;99.90;;;;;;4916195;29;20285;-70
2023/09/11 06:21:10;;;;;;;21.38;19.15;;;17.20;99.90;;;;;;4915946;29;20230;-69
2023/09/11 06:23:37;;;;;;;19.80;17.75;;;17.30;99.90;;;;;;4916035;29;20278;-74
2023/09/11 06:26:03;;;;;;;19.63;17.83;;;17.40;99.90;;;;;;4915781;29;20202;-69
2023/09/11 06:28:30;;;;;;;20.92;18.85;;;17.50;99.90;;;;;;4915869;29;20198;-70
2023/09/11 06:30:57;;;;;;;20.77;18.85;;;17.60;99.90;;;;;;4916077;29;20277;-70
2023/09/11 06:33:23;;;;;;;21.23;19.23;;;17.70;99.90;;;;;;4916152;29;20211;-68
2023/09/11 06:35:50;;;;;;;20.73;18.50;;;17.80;99.90;;;;;;4916166;29;20207;-68
2023/09/11 06:38:18;;;;;;;20.98;18.83;;;18.00;99.90;;;;;;4915878;29;20207;-68
2023/09/11 06:40:45;;;;;;;20.30;18.23;;;18.10;99.90;;;;;;4916726;29;20706;-68
2023/09/11 06:43:12;;;;;;;21.42;19.23;;;18.20;99.90;;;;;;4919500;29;20654;-68
2023/09/11 06:45:38;;;;;;;20.92;18.60;;;18.40;99.90;;;;;;4919617;29;20203;-68
2023/09/11 06:48:06;;;;;;;21.27;19.05;;;18.50;99.90;;;;;;4919484;29;20210;-68
2023/09/11 06:50:32;;;;;;;21.52;19.67;;;18.70;99.90;;;;;;4919396;29;20254;-68
2023/09/11 06:52:59;;;;;;;21.17;19.05;;;18.80;99.90;;;;;;4919001;29;20531;-68
2023/09/11 06:55:27;;;;;;;21.90;19.58;;;19.00;99.90;;;;;;4918947;29;20297;-68
2023/09/11 06:57:58;;;;;;;20.73;18.77;;;19.10;99.90;;;;;;4919163;29;20250;-69
2023/09/11 07:00:25;;;;;;;21.95;19.73;;;19.30;99.90;;;;;;4919147;29;20226;-69
2023/09/11 07:02:52;;;;;;;20.73;18.67;;;19.40;99.90;;;;;;4919198;29;20207;-69
2023/09/11 07:05:20;;;;;;;22.40;20.05;;;19.60;99.90;;;;;;4918937;29;20206;-68
2023/09/11 07:07:47;;;;;;;22.23;19.95;;;19.90;99.90;;;;;;4919039;29;20207;-68
2023/09/11 07:10:15;;;;;;;22.08;19.65;;;20.00;99.90;;;;;;4919240;29;20207;-68
2023/09/11 07:12:43;;;;;;;21.10;18.90;;;20.20;99.90;;;;;;4919127;29;20285;-68
2023/09/11 07:15:10;;;;;;;19.13;17.42;;;20.30;99.90;;;;;;4919067;29;20603;-68
2023/09/11 07:17:37;;;;;;;19.95;18.15;;;20.50;99.90;;;;;;4918917;29;20610;-68
2023/09/11 07:20:04;;;;;;;23.40;18.55;;;20.70;99.90;;;;;;4918657;29;20238;-68
2023/09/11 07:22:31;;;;;;;20.60;18.70;;;20.90;99.90;;;;;;4918859;29;20202;-69
2023/09/11 07:24:57;;;;;;;20.65;18.70;;;21.00;99.90;;;;;;4918696;29;20670;-69
2023/09/11 07:27:26;;;;;;;19.88;17.95;;;21.10;99.90;;;;;;4918753;29;20250;-69
2023/09/11 07:29:54;;;;;;;19.88;17.98;;;21.30;99.90;;;;;;4918799;29;20209;-69
2023/09/11 07:32:20;;;;;;;20.10;18.20;;;21.50;99.90;;;;;;4918639;29;20686;-69
2023/09/11 07:34:47;;;;;;;19.80;17.83;;;21.70;99.90;;;;;;4918582;29;20206;-69
2023/09/11 07:37:13;;;;;;;20.05;18.00;;;21.80;99.90;;;;;;4918689;29;20258;-69
2023/09/11 07:39:40;;;;;;;18.65;17.00;;;22.10;99.90;;;;;;4918588;29;20229;-69
2023/09/11 07:42:07;;;;;;;18.45;16.70;;;22.20;99.90;;;;;;4918401;29;20206;-69
2023/09/11 07:44:33;;;;;;;19.00;17.20;;;22.30;99.90;;;;;;4918472;29;20229;-69
2023/09/11 07:47:01;;;;;;;17.75;16.15;;;22.40;99.90;;;;;;4918368;29;20254;-69
2023/09/11 07:49:28;;;;;;;16.67;14.77;;;22.60;99.90;;;;;;4918225;29;20209;-69
2023/09/11 07:51:55;;;;;;;18.02;16.27;;;22.90;99.90;;;;;;4917799;29;20658;-70
2023/09/11 07:54:21;;;;;;;17.65;15.98;;;23.00;99.90;;;;;;4918135;29;20286;-70
2023/09/11 07:56:50;;;;;;;18.52;16.15;;;23.10;99.90;;;;;;4918193;29;20603;-70
2023/09/11 07:59:16;;;;;;;16.23;14.77;;;23.20;99.90;;;;;;4918285;29;20206;-70
2023/09/11 08:01:43;;;;;;;16.05;14.40;;;23.40;99.90;;;;;;4918098;29;20230;-70
2023/09/11 08:04:11;;;;;;;17.13;15.63;;;23.60;99.90;;;;;;4917944;29;20618;-70
2023/09/11 08:06:37;;;;;;;15.82;14.43;;;23.60;99.90;;;;;;4917954;29;20239;-70
2023/09/11 08:09:04;;;;;;;17.50;15.93;;;23.60;99.90;;;;;;4918038;29;20202;-70
2023/09/11 08:11:34;;;;;;;16.10;14.77;;;23.70;99.90;;;;;;4917816;29;20662;-69
2023/09/11 08:14:01;;;;;;;15.77;14.48;;;23.90;99.90;;;;;;4917912;29;20297;-70
2023/09/11 08:16:27;;;;;;;16.25;14.70;;;24.00;99.90;;;;;;4917999;29;20281;-70
2023/09/11 08:18:54;;;;;;;14.95;13.52;;;24.00;99.90;;;;;;4917968;29;20254;-70
2023/09/11 08:21:22;;;;;;;16.20;14.68;;;24.20;99.90;;;;;;4917797;29;20234;-70
2023/09/11 08:23:49;;;;;;;15.82;14.15;;;24.20;99.90;;;;;;4917696;29;20273;-68
2023/09/11 08:26:15;;;;;;;15.25;13.63;;;24.50;99.90;;;;;;4917545;29;20254;-68
2023/09/11 08:28:42;;;;;;;15.75;14.23;;;24.70;99.90;;;;;;4917444;29;20270;-69
2023/09/11 08:31:09;;;;;;;15.40;14.10;;;24.80;99.90;;;;;;4917731;29;20206;-68
2023/09/11 08:33:35;;;;;;;15.07;13.75;;;24.80;99.90;;;;;;4917528;29;20670;-69
2023/09/11 08:36:02;;;;;;;15.55;14.15;;;25.00;99.90;;;;;;4917616;29;20258;-70
2023/09/11 08:38:30;;;;;;;15.30;14.00;;;25.10;99.90;;;;;;4917437;29;20198;-70
2023/09/11 08:40:57;;;;;;;14.52;13.13;;;25.10;99.90;;;;;;4917343;29;20222;-70
2023/09/11 08:43:24;;;;;;;14.82;13.40;;;25.30;99.90;;;;;;4916594;29;20210;-70
2023/09/11 08:45:51;;;;;;;15.57;14.00;;;25.20;99.90;;;;;;4917437;29;20209;-69
2023/09/11 08:48:22;;;;;;;14.75;13.32;;;25.20;99.90;;;;;;4917199;29;20202;-69
2023/09/11 08:50:54;;;;;;;14.27;12.65;;;25.50;99.90;;;;;;4917240;29;20210;-67
2023/09/11 08:53:23;;;;;;;14.48;13.10;;;25.90;99.90;;;;;;4916811;29;20235;-67
2023/09/11 08:55:52;;;;;;;13.90;12.63;;;26.20;99.90;;;;;;4916951;29;20257;-67
2023/09/11 08:58:21;;;;;;;14.63;13.18;;;26.70;99.90;;;;;;4917216;29;20217;-71
2023/09/11 09:00:48;;;;;;;13.90;12.77;;;27.10;99.90;;;;;;4917070;29;20277;-68
2023/09/11 09:03:16;;;;;;;14.00;12.80;;;26.70;99.90;;;;;;4916449;29;20662;-68
2023/09/11 09:05:43;;;;;;;12.15;11.05;;;26.90;99.90;;;;;;4916236;29;20320;-68
2023/09/11 09:08:14;;;;;;;13.48;12.27;;;27.30;99.90;;;;;;4916903;29;20319;-67
2023/09/11 09:10:42;;;;;;;12.98;11.25;;;27.70;99.90;;;;;;4916650;29;20546;-68
2023/09/11 09:13:11;;;;;;;14.23;12.13;;;27.70;99.90;;;;;;4916548;29;20202;-69
2023/09/11 09:15:41;;;;;;;13.07;11.80;;;28.10;99.90;;;;;;4916846;29;20207;-68
2023/09/11 09:18:08;;;;;;;12.50;11.20;;;28.30;99.90;;;;;;4916858;29;20253;-68
2023/09/11 09:20:35;;;;;;;13.23;10.93;;;28.50;99.90;;;;;;4916661;29;20226;-70
2023/09/11 09:23:02;;;;;;;11.45;10.55;;;29.00;99.90;;;;;;4916589;29;20206;-68
2023/09/11 09:25:30;;;;;;;11.57;10.60;;;29.00;99.90;;;;;;4916887;29;20210;-68
2023/09/11 09:27:58;;;;;;;11.77;10.65;;;29.20;99.90;;;;;;4916825;29;20202;-68
2023/09/11 09:30:27;;;;;;;11.35;10.45;;;29.10;99.90;;;;;;4916685;29;20302;-68
2023/09/11 09:32:55;;;;;;;12.05;10.80;;;29.50;99.90;;;;;;4916618;29;20210;-68
2023/09/11 09:35:23;;;;;;;12.18;10.88;;;29.80;99.90;;;;;;4916452;29;20202;-68
2023/09/11 09:37:51;;;;;;;11.30;10.27;;;30.00;99.90;;;;;;4916395;29;20202;-68
2023/09/11 09:40:31;;;;;;;11.73;10.73;;;30.10;99.90;;;;;;4916467;29;20202;-68
2023/09/11 09:42:59;;;;;;;11.80;10.80;;;30.40;99.90;;;;;;4916449;29;20202;-68
2023/09/11 09:45:33;;;;;;;14.10;10.20;;;30.30;99.90;;;;;;4916316;29;20297;-68
2023/09/11 09:48:18;;;;;;;10.52;9.57;;;30.20;99.90;;;;;;4916198;29;20207;-68
2023/09/11 09:50:57;;;;;;;10.38;9.32;;;30.30;99.90;;;;;;4916493;29;20213;-68
2023/09/11 09:53:26;;;;;;;11.05;9.52;;;30.30;99.90;;;;;;4916286;29;20213;-68
2023/09/11 09:55:55;;;;;;;10.55;9.48;;;30.40;99.90;;;;;;4916271;29;20206;-69
2023/09/11 09:58:24;;;;;;;9.60;8.48;;;30.30;99.90;;;;;;4916161;29;20610;-68
2023/09/11 10:01:01;;;;;;;9.90;9.00;;;30.60;99.90;;;;;;4916117;29;20767;-69
2023/09/11 10:03:30;;;;;;;9.93;8.98;;;31.30;99.90;;;;;;4916363;29;20208;-69
2023/09/11 10:05:57;;;;;;;10.90;8.27;;;31.30;99.90;;;;;;4916127;29;20691;-69
2023/09/11 10:08:23;;;;;;;9.73;8.73;;;31.50;99.40;;;;;;4916151;29;20206;-69
2023/09/11 10:10:50;;;;;;;10.57;8.88;;;31.80;98.40;;;;;;4916193;29;20209;-69
2023/09/11 10:13:16;;;;;;;9.65;8.32;;;31.80;98.50;;;;;;4916273;29;20197;-69
2023/09/11 10:15:44;;;;;;;8.98;8.25;;;32.20;97.70;;;;;;4917382;29;20209;-69
2023/09/11 10:18:13;;;;;;;8.77;7.88;;;32.30;96.60;;;;;;4919963;29;20205;-69
2023/09/11 10:20:40;;;;;;;8.85;7.97;;;32.50;96.00;;;;;;4919681;29;20288;-69
2023/09/11 10:23:08;;;;;;;9.10;8.05;;;32.60;95.20;;;;;;4919842;29;20202;-69
2023/09/11 10:25:38;;;;;;;8.43;7.72;;;32.50;95.60;;;;;;4919787;29;20202;-70
2023/09/11 10:28:07;;;;;;;9.20;8.30;;;32.60;94.20;;;;;;4919874;29;20202;-69
2023/09/11 10:30:39;;;;;;;8.82;7.90;;;32.50;94.50;;;;;;4919848;29;20206;-69
2023/09/11 10:33:10;;;;;;;8.43;7.68;;;33.70;93.40;;;;;;4919726;29;20206;-69
2023/09/11 10:35:41;;;;;;;7.88;7.20;;;33.90;92.10;;;;;;4919563;29;20824;-69
2023/09/11 10:38:09;;;;;;;8.45;7.65;;;33.80;91.40;;;;;;4919474;29;20206;-69
2023/09/11 10:40:36;;;;;;;9.85;7.57;;;34.10;90.50;;;;;;4919498;29;20202;-69
2023/09/11 10:43:03;;;;;;;9.23;7.28;;;33.70;90.00;;;;;;4919290;29;20202;-69
2023/09/11 10:45:32;;;;;;;9.18;6.90;;;33.50;88.10;;;;;;4919144;29;20720;-69
2023/09/11 10:47:58;;;;;;;7.40;6.70;;;33.70;82.70;;;;;;4919407;29;20262;-69
2023/09/11 10:50:29;;;;;;;8.77;6.07;;;33.70;82.50;;;;;;4919205;29;20201;-68
2023/09/11 10:52:57;;;;;;;6.55;5.95;;;34.40;77.60;;;;;;4919212;29;20202;-69
2023/09/11 10:55:25;;;;;;;8.27;6.28;;;34.10;72.10;;;;;;4918817;29;20285;-68
2023/09/11 10:57:53;;;;;;;7.38;6.55;;;34.50;70.30;;;;;;4919109;29;20733;-69
2023/09/11 11:00:21;;;;;;;7.30;6.60;;;34.40;71.70;;;;;;4918979;29;20318;-69
2023/09/11 11:02:50;;;;;;;7.22;6.43;;;34.40;70.80;;;;;;4918896;29;20281;-69
2023/09/11 11:05:16;;;;;;;12.60;6.85;;;34.90;69.30;;;;;;4919172;29;20209;-70
2023/09/11 11:07:43;;;;;;;7.43;6.50;;;34.70;67.00;;;;;;4919087;29;20205;-70
2023/09/11 11:10:12;;;;;;;8.68;5.80;;;34.90;65.60;;;;;;4918875;29;20209;-69
2023/09/11 11:12:40;;;;;;;10.38;7.10;;;35.60;63.90;;;;;;4918750;29;20682;-69
2023/09/11 11:15:24;;;;;;;9.43;6.95;;;34.70;66.90;;;;;;4918794;29;20837;-70
2023/09/11 11:18:07;;;;;;;8.63;6.85;;;34.50;67.00;;;;;;4919067;29;20269;-70
2023/09/11 11:20:34;;;;;;;8.23;6.63;;;34.70;66.70;;;;;;4918679;29;20205;-69
2023/09/11 11:23:10;;;;;;;7.25;6.28;;;35.20;65.70;;;;;;4918510;29;20205;-72
2023/09/11 11:25:41;;;;;;;9.23;6.32;;;36.40;62.00;;;;;;4918774;29;20289;-72
2023/09/11 11:28:15;;;;;;;8.75;6.55;;;37.80;58.90;;;;;;4917737;29;20645;-70
2023/09/11 11:30:44;;;;;;;7.78;6.00;;;37.90;57.80;;;;;;4918348;29;20202;-69
2023/09/11 11:33:15;;;;;;;9.50;6.20;;;37.20;56.30;;;;;;4918705;29;20202;-69
2023/09/11 11:35:44;;;;;;;6.88;5.93;;;37.10;56.70;;;;;;4918606;29;20205;-69
2023/09/11 11:38:15;;;;;;;10.27;5.95;;;36.90;56.20;;;;;;4918506;29;20297;-69
2023/09/11 11:40:44;;;;;;;6.72;6.13;;;35.80;56.60;;;;;;4918267;29;20205;-69
2023/09/11 11:43:11;;;;;;;10.07;6.65;;;35.20;56.80;;;;;;4918591;29;20269;-69
2023/09/11 11:45:42;;;;;;;7.85;6.53;;;36.20;55.60;;;;;;4918418;29;20250;-69
2023/09/11 11:48:11;;;;;;;7.32;6.18;;;36.10;55.20;;;;;;4918278;29;20448;-69
2023/09/11 11:50:42;;;;;;;7.38;6.30;;;37.30;54.00;;;;;;4918130;29;20654;-69
2023/09/11 11:53:08;;;;;;;9.38;6.25;;;38.10;52.80;;;;;;4918324;29;20206;-70
2023/09/11 11:55:35;;;;;;;11.38;6.45;;;38.20;52.30;;;;;;4918257;29;20232;-70
2023/09/11 11:58:08;;;;;;;7.38;5.82;;;39.20;51.50;;;;;;4918364;29;20278;-69
2023/09/11 12:00:35;;;;;;;10.95;6.60;;;38.40;50.90;;;;;;4918187;29;20241;-69
2023/09/11 12:03:07;;;;;;;8.05;5.63;;;38.30;46.00;;;;;;4917993;29;20234;-69
2023/09/11 12:05:34;;;;;;;11.65;6.10;;;37.30;47.50;;;;;;4917966;29;20205;-69
2023/09/11 12:08:01;;;;;;;9.35;5.68;;;36.40;47.80;;;;;;4918276;29;20206;-69
2023/09/11 12:10:28;;;;;;;7.22;5.15;;;37.70;47.70;;;;;;4918123;29;20202;-69
2023/09/11 12:12:55;;;;;;;9.48;5.40;;;36.80;44.50;;;;;;4918001;29;20265;-69
2023/09/11 12:15:23;;;;;;;10.15;5.50;;;37.00;42.90;;;;;;4917895;29;20249;-69
2023/09/11 12:17:51;;;;;;;6.45;5.50;;;37.00;43.00;;;;;;4917836;29;20213;-69
2023/09/11 12:20:19;;;;;;;11.07;6.05;;;38.30;41.70;;;;;;4917636;29;20662;-69
2023/09/11 12:22:47;;;;;;;10.05;5.28;;;38.10;42.80;;;;;;4917950;29;20245;-69
2023/09/11 12:25:14;;;;;;;9.52;5.85;;;37.90;44.50;;;;;;4917753;29;20258;-69
2023/09/11 12:27:42;;;;;;;9.88;5.78;;;38.70;42.60;;;;;;4917746;29;20213;-69
2023/09/11 12:30:10;;;;;;;9.38;5.05;;;38.40;37.70;;;;;;4917642;29;20206;-69
2023/09/11 12:32:39;;;;;;;6.90;5.10;;;39.00;37.70;;;;;;4917555;29;20245;-69
2023/09/11 12:35:06;;;;;;;7.43;5.13;;;38.80;35.70;;;;;;4917677;29;20202;-70